createdAt,value
2018-12-05T00:00:18.667Z,102120.43
2018-12-05T00:02:46.628Z,102121.16
2018-12-05T00:05:15.238Z,102122.38
2018-12-05T00:07:43.315Z,102123.53
2018-12-05T00:10:11.096Z,102129.57
2018-12-05T00:12:38.768Z,102135.09
2018-12-05T00:15:06.775Z,102141.34
2018-12-05T00:17:34.396Z,102139.57
2018-12-05T00:20:02.141Z,102140.71
2018-12-05T00:22:29.969Z,102146.13
2018-12-05T00:24:57.671Z,102146.64
2018-12-05T00:27:25.299Z,102145.57
2018-12-05T00:29:53.211Z,102150.09
2018-12-05T00:32:21.500Z,102153.41
2018-12-05T00:34:49.391Z,102152.90
2018-12-05T00:37:17.159Z,102153.52
2018-12-05T00:39:46.098Z,102154.66
2018-12-05T00:42:13.922Z,102162.78
2018-12-05T00:44:41.631Z,102152.09
2018-12-05T00:47:09.479Z,102154.21
2018-12-05T00:49:37.534Z,102152.76
2018-12-05T00:52:06.036Z,102158.25
2018-12-05T00:54:33.994Z,102156.08
2018-12-05T00:57:01.566Z,102154.06
2018-12-05T00:59:29.483Z,102156.80
2018-12-05T01:01:57.739Z,102157.06
2018-12-05T01:04:25.630Z,102167.11
2018-12-05T01:06:55.725Z,102161.12
2018-12-05T01:09:23.551Z,102172.72
2018-12-05T01:11:51.163Z,102175.11
2018-12-05T01:14:18.831Z,102174.42
2018-12-05T01:16:46.544Z,102175.11
2018-12-05T01:19:14.362Z,102187.52
2018-12-05T01:21:42.057Z,102187.61
2018-12-05T01:24:09.865Z,102186.48
2018-12-05T01:26:37.714Z,102187.09
2018-12-05T01:29:05.695Z,102182.74
2018-12-05T01:31:33.689Z,102177.81
2018-12-05T01:34:02.408Z,102161.63
2018-12-05T01:36:30.036Z,102179.27
2018-12-05T01:38:57.691Z,102187.77
2018-12-05T01:41:25.432Z,102178.52
2018-12-05T01:43:53.239Z,102174.17
2018-12-05T01:46:20.928Z,102177.10
2018-12-05T01:48:48.605Z,102173.43
2018-12-05T01:51:16.211Z,102171.75
2018-12-05T01:53:43.986Z,102178.23
2018-12-05T01:56:11.796Z,102172.17
2018-12-05T01:58:39.596Z,102178.68
2018-12-05T02:01:07.315Z,102174.27
2018-12-05T02:03:35.188Z,102174.72
2018-12-05T02:06:02.815Z,102177.75
2018-12-05T02:08:30.516Z,102176.00
2018-12-05T02:10:58.388Z,102180.48
2018-12-05T02:13:26.016Z,102180.23
2018-12-05T02:15:53.705Z,102187.32
2018-12-05T02:18:21.865Z,102178.87
2018-12-05T02:20:49.435Z,102177.97
2018-12-05T02:23:17.299Z,102179.91
2018-12-05T02:25:44.992Z,102177.16
2018-12-05T02:28:12.840Z,102177.81
2018-12-05T02:30:40.480Z,102176.14
2018-12-05T02:33:08.353Z,102180.75
2018-12-05T02:35:35.987Z,102186.35
2018-12-05T02:38:03.653Z,102180.20
2018-12-05T02:40:31.320Z,102189.22
2018-12-05T02:42:59.432Z,102189.19
2018-12-05T02:45:27.077Z,102190.55
2018-12-05T02:47:54.941Z,102192.70
2018-12-05T02:50:22.605Z,102199.40
2018-12-05T02:52:50.408Z,102200.09
2018-12-05T02:55:18.430Z,102206.39
2018-12-05T02:57:46.208Z,102213.58
2018-12-05T03:00:13.871Z,102208.64
2018-12-05T03:02:41.690Z,102207.65
2018-12-05T03:05:09.501Z,102203.40
2018-12-05T03:07:37.207Z,102214.78
2018-12-05T03:10:05.937Z,102212.23
2018-12-05T03:12:33.671Z,102210.16
2018-12-05T03:15:01.346Z,102217.12
2018-12-05T03:17:29.009Z,102221.05
2018-12-05T03:19:56.676Z,102222.07
2018-12-05T03:22:24.355Z,102223.33
2018-12-05T03:24:52.074Z,102229.35
2018-12-05T03:27:20.704Z,102231.59
2018-12-05T03:29:49.188Z,102239.28
2018-12-05T03:32:16.846Z,102240.69
2018-12-05T03:34:44.804Z,102228.51
2018-12-05T03:37:12.737Z,102240.55
2018-12-05T03:39:40.976Z,102237.74
2018-12-05T03:42:08.928Z,102237.55
2018-12-05T03:44:37.192Z,102242.83
2018-12-05T03:47:05.679Z,102239.50
2018-12-05T03:49:33.557Z,102241.67
2018-12-05T03:52:01.208Z,102244.21
2018-12-05T03:54:28.840Z,102250.67
2018-12-05T03:56:56.740Z,102236.96
2018-12-05T03:59:24.394Z,102239.20
2018-12-05T04:01:52.067Z,102234.84
2018-12-05T04:04:19.732Z,102239.75
2018-12-05T04:06:47.439Z,102244.00
2018-12-05T04:09:15.248Z,102245.94
2018-12-05T04:11:43.501Z,102245.03
2018-12-05T04:14:11.753Z,102244.83
2018-12-05T04:16:39.410Z,102245.42
2018-12-05T04:19:07.077Z,102250.19
2018-12-05T04:21:34.762Z,102252.86
2018-12-05T04:24:02.746Z,102237.20
2018-12-05T04:26:30.502Z,102246.42
2018-12-05T04:28:58.365Z,102254.41
2018-12-05T04:31:26.435Z,102250.59
2018-12-05T04:33:54.710Z,102251.23
2018-12-05T04:36:22.492Z,102252.78
2018-12-05T04:38:50.878Z,102249.91
2018-12-05T04:41:18.581Z,102256.07
2018-12-05T04:43:47.214Z,102256.52
2018-12-05T04:46:14.979Z,102257.67
2018-12-05T04:48:43.357Z,102258.34
2018-12-05T04:51:11.141Z,102264.84
2018-12-05T04:53:39.900Z,102265.95
2018-12-05T04:56:08.192Z,102268.77
2018-12-05T04:58:36.520Z,102272.81
2018-12-05T05:01:04.512Z,102274.90
2018-12-05T05:03:32.597Z,102279.72
2018-12-05T05:06:00.253Z,102280.09
2018-12-05T05:08:27.940Z,102284.94
2018-12-05T05:10:55.592Z,102284.00
2018-12-05T05:13:23.556Z,102291.42
2018-12-05T05:15:51.160Z,102289.59
2018-12-05T05:18:19.074Z,102286.00
2018-12-05T05:20:46.884Z,102293.20
2018-12-05T05:23:14.714Z,102298.06
2018-12-05T05:25:42.646Z,102309.20
2018-12-05T05:28:11.230Z,102305.72
2018-12-05T05:30:38.800Z,102315.70
2018-12-05T05:33:06.749Z,102315.66
2018-12-05T05:35:34.353Z,102315.84
2018-12-05T05:38:02.215Z,102313.11
2018-12-05T05:40:29.990Z,102317.20
2018-12-05T05:42:57.744Z,102313.98
2018-12-05T05:45:25.414Z,102318.08
2018-12-05T05:47:53.063Z,102320.86
2018-12-05T05:50:21.075Z,102325.91
2018-12-05T05:52:49.032Z,102326.60
2018-12-05T05:55:16.663Z,102307.45
2018-12-05T05:57:44.296Z,102324.36
2018-12-05T06:00:11.924Z,102314.97
2018-12-05T06:02:40.409Z,102324.53
2018-12-05T06:05:07.964Z,102322.84
2018-12-05T06:07:35.601Z,102320.05
2018-12-05T06:10:05.240Z,102314.36
2018-12-05T06:12:32.969Z,102317.05
2018-12-05T06:15:00.572Z,102318.63
2018-12-05T06:17:28.896Z,102323.02
2018-12-05T06:19:56.524Z,102324.86
2018-12-05T06:22:24.216Z,102329.42
2018-12-05T06:24:51.877Z,102321.27
2018-12-05T06:27:19.444Z,102332.13
2018-12-05T06:29:47.205Z,102328.41
2018-12-05T06:32:15.583Z,102335.54
2018-12-05T06:34:43.592Z,102340.15
2018-12-05T06:37:11.152Z,102328.35
2018-12-05T06:39:38.848Z,102336.78
2018-12-05T06:42:06.540Z,102344.59
2018-12-05T06:44:34.312Z,102350.60
2018-12-05T06:47:02.024Z,102360.73
2018-12-05T06:49:29.730Z,102365.67
2018-12-05T06:51:57.601Z,102364.23
2018-12-05T06:54:25.237Z,102364.84
2018-12-05T06:56:53.932Z,102359.22
2018-12-05T06:59:21.565Z,102360.73
2018-12-05T07:01:49.267Z,102359.56
2018-12-05T07:04:17.092Z,102364.89
2018-12-05T07:06:44.996Z,102365.34
2018-12-05T07:09:12.875Z,102370.86
2018-12-05T07:11:40.960Z,102377.87
2018-12-05T07:14:08.633Z,102386.07
2018-12-05T07:16:36.257Z,102389.66
2018-12-05T07:19:04.095Z,102397.51
2018-12-05T07:21:31.796Z,102399.99
2018-12-05T07:23:59.446Z,102402.91
2018-12-05T07:26:27.524Z,102407.62
2018-12-05T07:28:55.810Z,102410.48
2018-12-05T07:31:23.662Z,102421.50
2018-12-05T07:33:51.340Z,102418.17
2018-12-05T07:36:19.188Z,102414.53
2018-12-05T07:38:46.847Z,102416.16
2018-12-05T07:41:14.454Z,102426.45
2018-12-05T07:43:42.174Z,102419.69
2018-12-05T07:46:10.204Z,102424.43
2018-12-05T07:48:37.865Z,102430.46
2018-12-05T07:51:05.536Z,102428.70
2018-12-05T07:53:33.467Z,102429.73
2018-12-05T07:56:01.380Z,102429.23
2018-12-05T07:58:29.904Z,102432.64
2018-12-05T08:00:57.616Z,102427.25
2018-12-05T08:03:25.428Z,102429.26
2018-12-05T08:05:54.181Z,102436.69
2018-12-05T08:08:22.176Z,102431.85
2018-12-05T08:10:49.890Z,102434.77
2018-12-05T08:13:18.092Z,102432.19
2018-12-05T08:15:45.839Z,102430.56
2018-12-05T08:18:13.736Z,102427.93
2018-12-05T08:20:41.719Z,102432.55
2018-12-05T08:23:09.264Z,102433.67
2018-12-05T08:25:36.933Z,102430.75
2018-12-05T08:28:04.771Z,102426.42
2018-12-05T08:30:32.455Z,102419.52
2018-12-05T08:33:00.077Z,102416.79
2018-12-05T08:35:27.752Z,102416.61
2018-12-05T08:37:56.162Z,102421.33
2018-12-05T08:40:24.917Z,102409.33
2018-12-05T08:42:52.651Z,102418.27
2018-12-05T08:45:20.253Z,102427.41
2018-12-05T08:47:48.316Z,102421.45
2018-12-05T08:50:16.010Z,102431.00
2018-12-05T08:52:45.260Z,102430.81
2018-12-05T08:55:12.939Z,102439.17
2018-12-05T08:57:40.905Z,102429.61
2018-12-05T09:00:08.917Z,102438.14
2018-12-05T09:02:36.812Z,102441.39
2018-12-05T09:05:05.801Z,102442.77
2018-12-05T09:07:33.533Z,102433.21
2018-12-05T09:10:01.672Z,102377.37
2018-12-05T09:12:29.372Z,102433.69
2018-12-05T09:14:57.285Z,102433.21
2018-12-05T09:17:25.718Z,102432.65
2018-12-05T09:19:55.650Z,102430.08
2018-12-05T09:22:23.400Z,102425.08
2018-12-05T09:24:51.985Z,102431.19
2018-12-05T09:27:19.699Z,102431.41
2018-12-05T09:29:47.442Z,102432.28
2018-12-05T09:32:15.378Z,102431.34
2018-12-05T09:34:43.673Z,102429.22
2018-12-05T09:37:11.614Z,102429.34
2018-12-05T09:39:39.232Z,102437.48
2018-12-05T09:42:07.252Z,102429.59
2018-12-05T09:44:35.395Z,102430.65
2018-12-05T09:47:03.093Z,102434.05
2018-12-05T09:49:30.748Z,102431.98
2018-12-05T09:51:58.364Z,102429.95
2018-12-05T09:54:26.423Z,102432.16
2018-12-05T09:56:54.450Z,102431.54
2018-12-05T09:59:22.428Z,102435.00
2018-12-05T10:01:50.752Z,102434.56
2018-12-05T10:04:18.542Z,102434.88
2018-12-05T10:06:46.216Z,102434.75
2018-12-05T10:09:13.839Z,102427.00
2018-12-05T10:11:41.558Z,102434.91
2018-12-05T10:14:10.542Z,102402.73
2018-12-05T10:16:38.275Z,102353.92
2018-12-05T10:19:06.186Z,102357.21
2018-12-05T10:21:33.817Z,102341.97
2018-12-05T10:24:01.450Z,102337.02
2018-12-05T10:26:30.236Z,102341.50
2018-12-05T10:28:58.581Z,102343.45
2018-12-05T10:31:26.357Z,102346.33
2018-12-05T10:33:55.002Z,102353.81
2018-12-05T10:36:22.669Z,102403.22
2018-12-05T10:38:50.268Z,102368.45
2018-12-05T10:41:17.959Z,102351.11
2018-12-05T10:43:45.629Z,102351.38
2018-12-05T10:46:13.268Z,102364.17
2018-12-05T10:48:40.996Z,102365.09
2018-12-05T10:51:09.354Z,102351.53
2018-12-05T10:53:38.227Z,102376.78
2018-12-05T10:56:06.209Z,102365.52
2018-12-05T10:58:34.188Z,102376.34
2018-12-05T11:04:06.964Z,102383.57
2018-12-05T11:06:40.325Z,102336.07
2018-12-05T11:09:13.779Z,102340.89
2018-12-05T11:11:47.629Z,102342.48
2018-12-05T11:14:20.980Z,102372.37
2018-12-05T11:16:50.933Z,102358.27
2018-12-05T11:19:24.814Z,102361.36
2018-12-05T11:22:14.633Z,102363.64
2018-12-05T11:24:42.964Z,102373.46
2018-12-05T11:27:11.300Z,102375.08
2018-12-05T11:29:39.264Z,102374.27
2018-12-05T11:32:07.165Z,102373.93
2018-12-05T11:34:35.947Z,102372.63
2018-12-05T11:37:03.672Z,102371.59
2018-12-05T11:39:31.526Z,102374.88
2018-12-05T11:41:59.365Z,102375.20
2018-12-05T11:44:27.399Z,102380.69
2018-12-05T11:46:55.152Z,102378.86
2018-12-05T11:49:23.061Z,102374.47
2018-12-05T11:51:50.882Z,102370.54
2018-12-05T11:54:18.903Z,102367.81
2018-12-05T11:56:47.260Z,102363.47
2018-12-05T11:59:15.275Z,102361.91
2018-12-05T12:01:43.272Z,102365.83
2018-12-05T12:04:11.488Z,102356.80
2018-12-05T12:06:40.066Z,102352.91
2018-12-05T12:09:08.558Z,102348.03
2018-12-05T12:11:36.176Z,102351.14
2018-12-05T12:14:04.153Z,102351.28
2018-12-05T12:16:31.883Z,102350.41
2018-12-05T12:19:01.817Z,102343.97
2018-12-05T12:21:29.624Z,102353.28
2018-12-05T12:23:58.065Z,102344.73
2018-12-05T12:26:32.974Z,102334.55
2018-12-05T12:28:55.850Z,102331.09
2018-12-05T12:31:23.897Z,102333.33
2018-12-05T12:33:52.269Z,102329.88
2018-12-05T12:36:19.972Z,102324.80
2018-12-05T12:38:47.765Z,102326.39
2018-12-05T12:41:15.629Z,102330.30
2018-12-05T12:43:43.422Z,102323.25
2018-12-05T12:46:13.206Z,102321.21
2018-12-05T12:48:43.010Z,102315.77
2018-12-05T12:51:13.248Z,102315.44
2018-12-05T12:53:41.892Z,102313.97
2018-12-05T12:56:09.998Z,102317.28
2018-12-05T12:58:38.370Z,102316.79
2018-12-05T13:01:06.087Z,102313.33
2018-12-05T13:03:34.378Z,102310.51
2018-12-05T13:06:02.135Z,102307.63
2018-12-05T13:08:30.859Z,102308.95
2018-12-05T13:10:58.660Z,102310.20
2018-12-05T13:13:28.292Z,102306.88
2018-12-05T13:15:56.174Z,102312.84
2018-12-05T13:18:23.934Z,102306.69
2018-12-05T13:20:52.030Z,102298.06
2018-12-05T13:23:20.143Z,102303.39
2018-12-05T13:25:48.005Z,102307.94
2018-12-05T13:28:15.902Z,102307.38
2018-12-05T13:30:44.019Z,102306.62
2018-12-05T13:33:11.607Z,102302.84
2018-12-05T13:35:39.349Z,102299.49
2018-12-05T13:38:07.833Z,102294.86
2018-12-05T13:40:35.621Z,102300.99
2018-12-05T13:43:04.242Z,102293.67
2018-12-05T13:45:31.996Z,102291.08
2018-12-05T13:48:00.686Z,102279.09
2018-12-05T13:50:28.795Z,102281.13
2018-12-05T13:52:56.557Z,102278.91
2018-12-05T13:55:24.418Z,102278.11
2018-12-05T13:57:52.250Z,102283.92
2018-12-05T14:00:20.549Z,102285.16
2018-12-05T14:02:48.334Z,102285.98
2018-12-05T14:05:16.943Z,102281.06
2018-12-05T14:07:44.946Z,102279.23
2018-12-05T14:10:12.767Z,102285.31
2018-12-05T14:12:40.820Z,102282.00
2018-12-05T14:15:08.849Z,102275.70
2018-12-05T14:17:36.652Z,102278.16
2018-12-05T14:20:05.925Z,102274.91
2018-12-05T14:22:33.600Z,102276.36
2018-12-05T14:25:01.483Z,102264.44
2018-12-05T14:27:29.452Z,102265.24
2018-12-05T14:29:57.324Z,102260.64
2018-12-05T14:32:25.171Z,102254.13
2018-12-05T14:34:52.953Z,102253.06
2018-12-05T14:37:20.890Z,102254.17
2018-12-05T14:39:49.156Z,102248.27
2018-12-05T14:42:17.166Z,102251.79
2018-12-05T14:44:45.276Z,102249.05
2018-12-05T14:47:12.940Z,102252.22
2018-12-05T14:49:40.589Z,102245.95
2018-12-05T14:52:08.692Z,102250.40
2018-12-05T14:54:36.663Z,102252.95
2018-12-05T14:57:04.331Z,102245.45
2018-12-05T14:59:32.004Z,102244.31
2018-12-05T15:02:00.620Z,102244.40
2018-12-05T15:04:28.420Z,102253.05
2018-12-05T15:06:56.012Z,102247.01
2018-12-05T15:09:24.077Z,102249.50
2018-12-05T15:11:51.705Z,102249.01
2018-12-05T15:14:19.310Z,102244.30
2018-12-05T15:16:47.269Z,102243.96
2018-12-05T15:19:15.123Z,102240.92
2018-12-05T15:21:42.822Z,102242.44
2018-12-05T15:24:10.794Z,102243.22
2018-12-05T15:26:38.662Z,102236.40
2018-12-05T15:29:06.834Z,102234.22
2018-12-05T15:31:34.393Z,102238.83
2018-12-05T15:34:02.014Z,102231.06
2018-12-05T15:36:29.985Z,102204.84
2018-12-05T15:38:57.618Z,102222.67
2018-12-05T15:41:25.216Z,102212.42
2018-12-05T15:43:52.990Z,102210.95
2018-12-05T15:46:20.586Z,102206.55
2018-12-05T15:48:48.327Z,102200.15
2018-12-05T15:51:17.052Z,102205.64
2018-12-05T15:53:45.437Z,102211.25
2018-12-05T15:56:13.169Z,102197.63
2018-12-05T15:58:41.310Z,102199.23
2018-12-05T16:01:09.563Z,102195.30
2018-12-05T16:03:43.182Z,102193.13
2018-12-05T16:06:07.940Z,102189.02
2018-12-05T16:08:35.956Z,102181.90
2018-12-05T16:11:03.650Z,102178.55
2018-12-05T16:13:31.271Z,102169.48
2018-12-05T16:15:58.920Z,102176.48
2018-12-05T16:18:26.855Z,102165.48
2018-12-05T16:20:54.661Z,102165.29
2018-12-05T16:23:22.521Z,102163.86
2018-12-05T16:25:50.199Z,102156.77
2018-12-05T16:28:17.919Z,102164.89
2018-12-05T16:30:45.589Z,102159.58
2018-12-05T16:33:13.192Z,102173.41
2018-12-05T16:35:40.819Z,102169.03
2018-12-05T16:38:08.534Z,102159.58
2018-12-05T16:40:36.221Z,102159.25
2018-12-05T16:43:04.442Z,102158.08
2018-12-05T16:45:33.260Z,102152.48
2018-12-05T16:48:01.155Z,102158.57
2018-12-05T16:50:28.932Z,102150.60
2018-12-05T16:52:56.573Z,102153.85
2018-12-05T16:55:24.287Z,102152.79
2018-12-05T16:57:52.784Z,102153.64
2018-12-05T17:00:20.606Z,102147.52
2018-12-05T17:02:48.456Z,102150.05
2018-12-05T17:05:16.675Z,102152.36
2018-12-05T17:07:44.370Z,102143.88
2018-12-05T17:10:12.342Z,102144.77
2018-12-05T17:12:40.147Z,102147.01
2018-12-05T17:15:07.994Z,102138.41
2018-12-05T17:17:35.902Z,102141.67
2018-12-05T17:20:04.908Z,102140.23
2018-12-05T17:22:32.882Z,102144.33
2018-12-05T17:25:00.863Z,102135.13
2018-12-05T17:27:28.891Z,102140.66
2018-12-05T17:29:56.993Z,102129.98
2018-12-05T17:32:25.153Z,102132.39
2018-12-05T17:34:52.913Z,102130.39
2018-12-05T17:37:22.449Z,102130.95
2018-12-05T17:39:50.372Z,102126.44
2018-12-05T17:42:18.569Z,102123.69
2018-12-05T17:44:46.560Z,102117.35
2018-12-05T17:47:14.497Z,102109.98
2018-12-05T17:49:42.656Z,102112.70
2018-12-05T17:52:10.579Z,102109.41
2018-12-05T17:54:38.329Z,102106.45
2018-12-05T17:57:06.899Z,102102.34
2018-12-05T17:59:36.109Z,102102.48
2018-12-05T18:02:04.949Z,102096.23
2018-12-05T18:04:32.725Z,102102.02
2018-12-05T18:07:00.483Z,102100.20
2018-12-05T18:09:28.865Z,102091.48
2018-12-05T18:11:57.064Z,102089.11
2018-12-05T18:14:25.232Z,102076.80
2018-12-05T18:16:53.020Z,102084.59
2018-12-05T18:19:20.887Z,102076.52
2018-12-05T18:21:49.340Z,102071.72
2018-12-05T18:24:17.338Z,102072.00
2018-12-05T18:26:45.128Z,102068.65
2018-12-05T18:29:13.855Z,102066.88
2018-12-05T18:31:42.185Z,102062.75
2018-12-05T18:34:09.840Z,102063.13
2018-12-05T18:36:37.799Z,102065.75
2018-12-05T18:39:06.299Z,102058.94
2018-12-05T18:41:34.049Z,102067.06
2018-12-05T18:44:01.898Z,102066.91
2018-12-05T18:46:30.389Z,102060.14
2018-12-05T18:48:58.160Z,102054.55
2018-12-05T18:51:26.072Z,102052.02
2018-12-05T18:53:53.998Z,102034.64
2018-12-05T18:56:23.460Z,102043.17
2018-12-05T18:58:51.341Z,102033.48
2018-12-05T19:01:19.434Z,102038.58
2018-12-05T19:03:47.149Z,102032.51
2018-12-05T19:06:15.207Z,102032.78
2018-12-05T19:08:43.639Z,102034.41
2018-12-05T19:11:11.517Z,102031.16
2018-12-05T19:13:45.014Z,102032.69
2018-12-05T19:16:12.728Z,102022.84
2018-12-05T19:18:40.847Z,102026.38
2018-12-05T19:21:08.464Z,102030.83
2018-12-05T19:23:36.839Z,102025.00
2018-12-05T19:26:04.873Z,102014.01
2018-12-05T19:28:32.948Z,102008.20
2018-12-05T19:31:00.952Z,102007.53
2018-12-05T19:33:29.963Z,102001.73
2018-12-05T19:35:58.383Z,101998.14
2018-12-05T19:38:26.621Z,101993.30
2018-12-05T19:40:54.840Z,101996.22
2018-12-05T19:43:24.667Z,101997.03
2018-12-05T19:45:53.218Z,101999.49
2018-12-05T19:48:21.240Z,101987.73
2018-12-05T19:50:49.471Z,101994.33
2018-12-05T19:53:18.155Z,101992.89
2018-12-05T19:55:47.012Z,101985.69
2018-12-05T19:58:15.335Z,101988.47
2018-12-05T20:00:44.884Z,101991.65
2018-12-05T20:03:12.888Z,101993.52
2018-12-05T20:05:40.935Z,101996.11
2018-12-05T20:08:09.787Z,101984.47
2018-12-05T20:10:37.765Z,101983.98
2018-12-05T20:13:05.774Z,101985.03
2018-12-05T20:15:33.476Z,101979.77
2018-12-05T20:18:01.317Z,101975.72
2018-12-05T20:20:28.920Z,101976.13
2018-12-05T20:22:56.875Z,101978.50
2018-12-05T20:25:25.422Z,101982.83
2018-12-05T20:27:54.460Z,101979.05
2018-12-05T20:30:22.491Z,101983.03
2018-12-05T20:32:50.193Z,101983.16
2018-12-05T20:35:18.841Z,101988.04
2018-12-05T20:37:46.901Z,101977.70
2018-12-05T20:40:14.961Z,101973.62
2018-12-05T20:42:44.385Z,101978.43
2018-12-05T20:45:13.071Z,101978.94
2018-12-05T20:47:40.936Z,101979.31
2018-12-05T20:50:09.362Z,101972.37
2018-12-05T20:52:37.388Z,101961.55
2018-12-05T20:55:06.106Z,101957.86
2018-12-05T20:57:34.344Z,101954.28
2018-12-05T21:00:03.380Z,101944.92
2018-12-05T21:02:31.321Z,101934.27
2018-12-05T21:04:59.277Z,101934.83
2018-12-05T21:07:27.558Z,101930.73
2018-12-05T21:09:55.421Z,101924.64
2018-12-05T21:12:23.396Z,101922.55
2018-12-05T21:14:51.330Z,101917.55
2018-12-05T21:17:19.420Z,101921.23
2018-12-05T21:19:47.935Z,101923.19
2018-12-05T21:22:15.807Z,101919.55
2018-12-05T21:24:43.527Z,101914.07
2018-12-05T21:27:11.457Z,101915.42
2018-12-05T21:29:39.473Z,101911.60
2018-12-05T21:32:07.153Z,101909.45
2018-12-05T21:34:35.230Z,101895.25
2018-12-05T21:37:03.996Z,101887.25
2018-12-05T21:39:31.957Z,101886.17
2018-12-05T21:42:01.586Z,101877.98
2018-12-05T21:44:30.080Z,101883.28
2018-12-05T21:46:57.828Z,101865.38
2018-12-05T21:49:25.774Z,101876.45
2018-12-05T21:51:53.543Z,101860.70
2018-12-05T21:54:21.248Z,101866.34
2018-12-05T21:56:49.502Z,101868.34
2018-12-05T21:59:17.461Z,101865.41
2018-12-05T22:01:45.271Z,101860.10
2018-12-05T22:04:14.212Z,101854.19
2018-12-05T22:06:41.983Z,101849.50
2018-12-05T22:09:10.675Z,101852.02
2018-12-05T22:11:38.283Z,101844.59
2018-12-05T22:14:05.983Z,101844.27
2018-12-05T22:16:33.683Z,101847.02
2018-12-05T22:19:01.730Z,101842.88
2018-12-05T22:21:29.349Z,101848.41
2018-12-05T22:23:57.217Z,101840.08
2018-12-05T22:26:24.887Z,101838.31
2018-12-05T22:28:52.540Z,101836.55
2018-12-05T22:31:20.198Z,101836.31
2018-12-05T22:33:47.908Z,101832.72
2018-12-05T22:36:16.136Z,101830.95
2018-12-05T22:38:43.824Z,101820.80
2018-12-05T22:41:11.553Z,101809.96
2018-12-05T22:43:39.316Z,101801.77
2018-12-05T22:46:07.029Z,101811.34
2018-12-05T22:48:34.793Z,101797.20
2018-12-05T22:51:02.812Z,101795.78
2018-12-05T22:53:30.741Z,101791.77
2018-12-05T22:55:58.644Z,101788.41
2018-12-05T22:58:26.752Z,101787.41
2018-12-05T23:00:55.324Z,101785.56
2018-12-05T23:03:23.407Z,101776.20
2018-12-05T23:05:51.171Z,101777.66
2018-12-05T23:08:19.112Z,101773.80
2018-12-05T23:10:46.900Z,101767.78
2018-12-05T23:13:14.786Z,101759.35
2018-12-05T23:15:43.249Z,101750.00
2018-12-05T23:18:11.015Z,101742.54
2018-12-05T23:20:38.797Z,101745.34
2018-12-05T23:23:06.562Z,101735.47
2018-12-05T23:25:34.326Z,101726.61
2018-12-05T23:28:03.048Z,101717.06
2018-12-05T23:30:30.977Z,101723.09
2018-12-05T23:32:58.837Z,101717.16
2018-12-05T23:35:26.444Z,101711.31
2018-12-05T23:37:54.128Z,101709.52
2018-12-05T23:40:21.832Z,101704.09
2018-12-05T23:42:50.627Z,101707.41
2018-12-05T23:45:18.628Z,101706.04
2018-12-05T23:47:46.476Z,101697.41
2018-12-05T23:50:14.533Z,101690.97
2018-12-05T23:52:42.118Z,101686.06
2018-12-05T23:55:09.911Z,101683.95
2018-12-05T23:57:37.655Z,101682.40
